SCCI/PUQ METAR and TAF weather

Enter ICAO airport designator
Station Type Date Time Source
SCCI METAR 2021/05/13 06:00 UTC NOAA

SCCI 130600Z 32012KT 9999 FEW030 SCT040 06/04 Q0998 NOSIG


Station Type Date Time Source
SCCI Decoded METAR 2021/05/13 06:00 UTC NOAA

Punta Arenas, Chile (SCCI) 53-00S 070-51W 33M
May 13, 2021 - 02:00 AM EDT / 2021.05.13 0600 UTC
Wind: from the NW (320 degrees) at 14 MPH (12 KT):0
Visibility: greater than 7 mile(s):0
Sky conditions: partly cloudy
Temperature: 42 F (6 C)
Dew Point: 39 F (4 C)
Relative Humidity: 86%
Pressure (altimeter): 29.47 in. Hg (0998 hPa)
ob: SCCI 130600Z 32012KT 9999 FEW030 SCT040 06/04 Q0998 NOSIG
cycle: 6

Station Type Date Time Source
SCCI TAF 2021/05/13 06:03 UTC NOAA

TAF SCCI 130409Z 1306/1406 30015KT 9999 SCT040 TX10/1318Z TN03/1310Z PROB40
TEMPO 1306/1312 28025G35KT
BECMG 1312/1314 27010KT CAVOK
BECMG 1314/1316 VRB03KT
BECMG 1400/1402 33008KT

Example: see airport list